sensor_id;sensor_type;location;lat;lon;timestamp;pressure;altitude;pressure_sealevel;temperature;humidity
43553;BME280;29153;42.696;23.218;2023-04-29T00:01:43;94502.06;;;2.68;95.50
43553;BME280;29153;42.696;23.218;2023-04-29T00:04:10;94495.88;;;2.84;94.85
43553;BME280;29153;42.696;23.218;2023-04-29T00:06:39;94498.20;;;2.83;94.61
43553;BME280;29153;42.696;23.218;2023-04-29T00:09:07;94495.53;;;2.80;94.51
43553;BME280;29153;42.696;23.218;2023-04-29T00:11:34;94500.88;;;2.73;94.65
43553;BME280;29153;42.696;23.218;2023-04-29T00:14:02;94506.03;;;2.71;94.96
43553;BME280;29153;42.696;23.218;2023-04-29T00:16:29;94504.09;;;2.66;95.46
43553;BME280;29153;42.696;23.218;2023-04-29T00:18:57;94500.84;;;2.62;96.04
43553;BME280;29153;42.696;23.218;2023-04-29T00:21:24;94505.52;;;2.60;95.78
43553;BME280;29153;42.696;23.218;2023-04-29T00:23:54;94505.17;;;2.56;95.85
43553;BME280;29153;42.696;23.218;2023-04-29T00:26:21;94513.23;;;2.55;95.60
43553;BME280;29153;42.696;23.218;2023-04-29T00:28:49;94505.84;;;2.52;95.64
43553;BME280;29153;42.696;23.218;2023-04-29T00:31:16;94505.28;;;2.41;96.23
43553;BME280;29153;42.696;23.218;2023-04-29T00:33:44;94508.41;;;2.40;96.24
43553;BME280;29153;42.696;23.218;2023-04-29T00:36:11;94513.79;;;2.36;96.27
43553;BME280;29153;42.696;23.218;2023-04-29T00:38:39;94518.45;;;2.13;96.79
43553;BME280;29153;42.696;23.218;2023-04-29T00:41:06;94509.49;;;2.21;96.77
43553;BME280;29153;42.696;23.218;2023-04-29T00:43:34;94511.83;;;2.11;96.75
43553;BME280;29153;42.696;23.218;2023-04-29T00:46:01;94509.53;;;2.03;97.13
43553;BME280;29153;42.696;23.218;2023-04-29T00:48:29;94500.52;;;2.08;97.22
43553;BME280;29153;42.696;23.218;2023-04-29T00:50:58;94511.11;;;2.13;96.54
43553;BME280;29153;42.696;23.218;2023-04-29T00:53:26;94503.80;;;2.03;96.34
43553;BME280;29153;42.696;23.218;2023-04-29T00:55:54;94501.49;;;1.95;96.90
43553;BME280;29153;42.696;23.218;2023-04-29T00:58:22;94502.01;;;1.86;97.42
43553;BME280;29153;42.696;23.218;2023-04-29T01:00:52;94490.84;;;1.88;97.62
43553;BME280;29153;42.696;23.218;2023-04-29T01:03:21;94493.88;;;1.84;97.71
43553;BME280;29153;42.696;23.218;2023-04-29T01:05:53;94483.17;;;1.83;97.62
43553;BME280;29153;42.696;23.218;2023-04-29T01:08:43;94485.39;;;1.89;97.38
43553;BME280;29153;42.696;23.218;2023-04-29T01:11:11;94480.61;;;1.86;97.40
43553;BME280;29153;42.696;23.218;2023-04-29T01:13:49;94477.20;;;1.86;97.58
43553;BME280;29153;42.696;23.218;2023-04-29T01:18:56;94470.88;;;1.84;97.74
43553;BME280;29153;42.696;23.218;2023-04-29T01:21:24;94474.80;;;1.84;97.58
43553;BME280;29153;42.696;23.218;2023-04-29T01:23:52;94466.55;;;1.78;97.70
43553;BME280;29153;42.696;23.218;2023-04-29T01:26:22;94464.25;;;1.70;98.31
43553;BME280;29153;42.696;23.218;2023-04-29T01:29:26;94408.95;;;1.43;98.15
43553;BME280;29153;42.696;23.218;2023-04-29T01:32:12;94472.27;;;1.87;97.79
43553;BME280;29153;42.696;23.218;2023-04-29T01:34:39;94462.86;;;1.67;98.15
43553;BME280;29153;42.696;23.218;2023-04-29T01:42:50;94466.81;;;1.49;98.67
43553;BME280;29153;42.696;23.218;2023-04-29T01:45:17;94466.93;;;1.54;99.24
43553;BME280;29153;42.696;23.218;2023-04-29T01:47:47;94463.11;;;1.57;99.09
43553;BME280;29153;42.696;23.218;2023-04-29T01:50:15;94465.78;;;1.50;99.18
43553;BME280;29153;42.696;23.218;2023-04-29T01:52:42;94465.36;;;1.62;98.92
43553;BME280;29153;42.696;23.218;2023-04-29T01:55:10;94462.09;;;1.67;98.31
43553;BME280;29153;42.696;23.218;2023-04-29T01:57:37;94468.83;;;1.65;98.33
43553;BME280;29153;42.696;23.218;2023-04-29T02:00:05;94461.65;;;1.61;98.33
43553;BME280;29153;42.696;23.218;2023-04-29T02:02:34;94470.44;;;1.48;98.48
43553;BME280;29153;42.696;23.218;2023-04-29T02:05:02;94467.23;;;1.37;99.50
43553;BME280;29153;42.696;23.218;2023-04-29T02:07:29;94471.95;;;1.47;99.50
43553;BME280;29153;42.696;23.218;2023-04-29T02:09:57;94475.50;;;1.43;99.71
43553;BME280;29153;42.696;23.218;2023-04-29T02:12:24;94480.88;;;1.48;99.67
43553;BME280;29153;42.696;23.218;2023-04-29T02:14:52;94477.97;;;1.47;99.63
43553;BME280;29153;42.696;23.218;2023-04-29T02:17:20;94475.80;;;1.35;100.00
43553;BME280;29153;42.696;23.218;2023-04-29T02:19:47;94469.92;;;1.30;100.00
43553;BME280;29153;42.696;23.218;2023-04-29T02:22:14;94471.02;;;1.32;100.00
43553;BME280;29153;42.696;23.218;2023-04-29T02:24:42;94472.53;;;1.30;100.00
43553;BME280;29153;42.696;23.218;2023-04-29T02:27:10;94470.23;;;1.41;100.00
43553;BME280;29153;42.696;23.218;2023-04-29T02:29:37;94438.97;;;1.25;100.00
43553;BME280;29153;42.696;23.218;2023-04-29T02:32:05;94473.41;;;1.52;99.27
43553;BME280;29153;42.696;23.218;2023-04-29T02:34:32;94467.77;;;1.36;99.53
43553;BME280;29153;42.696;23.218;2023-04-29T02:37:00;94474.64;;;1.40;99.42
43553;BME280;29153;42.696;23.218;2023-04-29T02:39:27;94467.17;;;1.34;99.33
43553;BME280;29153;42.696;23.218;2023-04-29T02:41:55;94463.84;;;1.27;99.27
43553;BME280;29153;42.696;23.218;2023-04-29T02:44:22;94462.98;;;1.15;100.00
43553;BME280;29153;42.696;23.218;2023-04-29T02:46:50;94465.50;;;1.22;100.00
43553;BME280;29153;42.696;23.218;2023-04-29T02:49:17;94467.81;;;1.21;100.00
43553;BME280;29153;42.696;23.218;2023-04-29T02:51:45;94468.77;;;1.17;100.00
43553;BME280;29153;42.696;23.218;2023-04-29T02:54:14;94469.64;;;1.11;100.00
43553;BME280;29153;42.696;23.218;2023-04-29T02:56:42;94475.91;;;1.04;100.00
43553;BME280;29153;42.696;23.218;2023-04-29T02:59:10;94485.48;;;1.01;100.00
43553;BME280;29153;42.696;23.218;2023-04-29T03:01:37;94485.04;;;1.04;100.00
43553;BME280;29153;42.696;23.218;2023-04-29T03:04:05;94478.76;;;1.02;100.00
43553;BME280;29153;42.696;23.218;2023-04-29T03:06:33;94480.55;;;0.93;100.00
43553;BME280;29153;42.696;23.218;2023-04-29T03:09:00;94482.55;;;0.90;100.00
43553;BME280;29153;42.696;23.218;2023-04-29T03:11:28;94481.11;;;0.95;100.00
43553;BME280;29153;42.696;23.218;2023-04-29T03:13:55;94490.09;;;0.99;99.67
43553;BME280;29153;42.696;23.218;2023-04-29T03:16:23;94493.13;;;0.86;100.00
43553;BME280;29153;42.696;23.218;2023-04-29T03:18:51;94488.34;;;0.83;100.00
43553;BME280;29153;42.696;23.218;2023-04-29T03:21:18;94488.02;;;0.73;100.00
43553;BME280;29153;42.696;23.218;2023-04-29T03:23:46;94494.50;;;0.80;100.00
43553;BME280;29153;42.696;23.218;2023-04-29T03:26:13;94502.45;;;0.76;100.00
43553;BME280;29153;42.696;23.218;2023-04-29T03:28:41;94510.28;;;0.76;100.00
43553;BME280;29153;42.696;23.218;2023-04-29T03:31:08;94518.16;;;0.78;100.00
43553;BME280;29153;42.696;23.218;2023-04-29T03:33:36;94519.41;;;0.76;100.00
43553;BME280;29153;42.696;23.218;2023-04-29T03:36:04;94521.14;;;0.82;100.00
43553;BME280;29153;42.696;23.218;2023-04-29T03:38:31;94518.03;;;0.82;100.00
43553;BME280;29153;42.696;23.218;2023-04-29T03:40:59;94514.34;;;0.90;100.00
43553;BME280;29153;42.696;23.218;2023-04-29T03:43:27;94515.38;;;0.89;100.00
43553;BME280;29153;42.696;23.218;2023-04-29T03:45:54;94513.62;;;0.83;100.00
43553;BME280;29153;42.696;23.218;2023-04-29T03:48:22;94505.16;;;0.87;100.00
43553;BME280;29153;42.696;23.218;2023-04-29T03:50:49;94496.62;;;0.99;100.00
43553;BME280;29153;42.696;23.218;2023-04-29T03:53:17;94503.02;;;1.12;100.00
43553;BME280;29153;42.696;23.218;2023-04-29T03:55:44;94498.25;;;1.18;100.00
43553;BME280;29153;42.696;23.218;2023-04-29T03:58:11;94501.82;;;1.23;100.00
43553;BME280;29153;42.696;23.218;2023-04-29T04:00:39;94510.59;;;1.38;100.00
43553;BME280;29153;42.696;23.218;2023-04-29T04:03:07;94512.64;;;1.45;100.00
43553;BME280;29153;42.696;23.218;2023-04-29T04:05:34;94516.17;;;1.60;100.00
43553;BME280;29153;42.696;23.218;2023-04-29T04:08:02;94521.25;;;1.73;100.00
43553;BME280;29153;42.696;23.218;2023-04-29T04:10:29;94517.68;;;1.86;100.00
43553;BME280;29153;42.696;23.218;2023-04-29T04:12:57;94519.98;;;1.94;100.00
43553;BME280;29153;42.696;23.218;2023-04-29T04:15:24;94523.98;;;2.05;100.00
43553;BME280;29153;42.696;23.218;2023-04-29T04:17:51;94525.73;;;2.23;100.00
43553;BME280;29153;42.696;23.218;2023-04-29T04:20:19;94522.52;;;2.39;100.00
43553;BME280;29153;42.696;23.218;2023-04-29T04:22:47;94523.55;;;2.50;100.00
43553;BME280;29153;42.696;23.218;2023-04-29T04:25:14;94519.09;;;2.59;100.00
43553;BME280;29153;42.696;23.218;2023-04-29T04:27:42;94510.97;;;2.70;100.00
43553;BME280;29153;42.696;23.218;2023-04-29T04:30:09;94504.98;;;2.81;100.00
43553;BME280;29153;42.696;23.218;2023-04-29T04:32:37;94507.97;;;3.08;100.00
43553;BME280;29153;42.696;23.218;2023-04-29T04:35:05;94509.73;;;3.28;100.00
43553;BME280;29153;42.696;23.218;2023-04-29T04:37:33;94514.55;;;3.45;100.00
43553;BME280;29153;42.696;23.218;2023-04-29T04:40:00;94513.84;;;3.61;100.00
43553;BME280;29153;42.696;23.218;2023-04-29T04:45:50;94512.23;;;3.98;100.00
43553;BME280;29153;42.696;23.218;2023-04-29T04:48:18;94513.45;;;4.21;100.00
43553;BME280;29153;42.696;23.218;2023-04-29T04:50:45;94512.38;;;4.34;100.00
43553;BME280;29153;42.696;23.218;2023-04-29T04:53:13;94522.03;;;4.45;100.00
43553;BME280;29153;42.696;23.218;2023-04-29T04:55:40;94513.14;;;4.63;100.00
43553;BME280;29153;42.696;23.218;2023-04-29T04:58:08;94506.58;;;4.63;99.67
43553;BME280;29153;42.696;23.218;2023-04-29T05:00:35;94501.99;;;4.70;98.87
43553;BME280;29153;42.696;23.218;2023-04-29T05:03:03;94504.34;;;5.02;98.82
43553;BME280;29153;42.696;23.218;2023-04-29T05:05:32;94499.78;;;5.31;96.95
43553;BME280;29153;42.696;23.218;2023-04-29T05:08:00;94507.19;;;5.53;96.13
43553;BME280;29153;42.696;23.218;2023-04-29T05:10:27;94500.43;;;5.79;95.25
43553;BME280;29153;42.696;23.218;2023-04-29T05:12:55;94494.84;;;5.92;93.51
43553;BME280;29153;42.696;23.218;2023-04-29T05:15:22;94493.36;;;6.23;89.85
43553;BME280;29153;42.696;23.218;2023-04-29T05:17:51;94486.41;;;6.38;88.46
43553;BME280;29153;42.696;23.218;2023-04-29T05:20:19;94490.17;;;6.45;86.80
43553;BME280;29153;42.696;23.218;2023-04-29T05:22:46;94489.45;;;6.52;86.21
43553;BME280;29153;42.696;23.218;2023-04-29T05:25:14;94480.58;;;6.61;86.86
43553;BME280;29153;42.696;23.218;2023-04-29T05:27:41;94481.31;;;6.85;85.46
43553;BME280;29153;42.696;23.218;2023-04-29T05:30:09;94485.45;;;6.76;81.32
43553;BME280;29153;42.696;23.218;2023-04-29T05:32:36;94491.14;;;6.93;79.89
43553;BME280;29153;42.696;23.218;2023-04-29T05:35:04;94489.93;;;7.10;78.30
43553;BME280;29153;42.696;23.218;2023-04-29T05:37:32;94481.92;;;7.32;76.69
43553;BME280;29153;42.696;23.218;2023-04-29T05:39:59;94486.47;;;7.42;77.58
43553;BME280;29153;42.696;23.218;2023-04-29T05:42:27;94490.98;;;7.46;76.42
43553;BME280;29153;42.696;23.218;2023-04-29T05:44:54;94494.00;;;7.67;75.63
43553;BME280;29153;42.696;23.218;2023-04-29T05:47:21;94495.28;;;7.62;74.83
43553;BME280;29153;42.696;23.218;2023-04-29T05:49:49;94497.28;;;7.92;75.83
43553;BME280;29153;42.696;23.218;2023-04-29T05:52:16;94496.30;;;8.03;73.39
43553;BME280;29153;42.696;23.218;2023-04-29T05:54:44;94501.17;;;8.29;74.23
43553;BME280;29153;42.696;23.218;2023-04-29T05:57:12;94500.14;;;8.48;72.81
43553;BME280;29153;42.696;23.218;2023-04-29T05:59:39;94504.91;;;8.56;71.79
43553;BME280;29153;42.696;23.218;2023-04-29T06:02:07;94491.76;;;8.79;70.79
43553;BME280;29153;42.696;23.218;2023-04-29T06:04:36;94505.25;;;9.05;70.24
43553;BME280;29153;42.696;23.218;2023-04-29T06:07:03;94510.80;;;9.39;67.58
43553;BME280;29153;42.696;23.218;2023-04-29T06:09:31;94498.33;;;9.70;69.15
43553;BME280;29153;42.696;23.218;2023-04-29T06:11:58;94501.41;;;9.97;66.40
43553;BME280;29153;42.696;23.218;2023-04-29T06:14:26;94498.47;;;10.14;67.10
43553;BME280;29153;42.696;23.218;2023-04-29T06:16:53;94502.69;;;10.20;65.90
43553;BME280;29153;42.696;23.218;2023-04-29T06:19:21;94497.95;;;10.17;65.60
43553;BME280;29153;42.696;23.218;2023-04-29T06:21:50;94497.87;;;10.34;66.82
43553;BME280;29153;42.696;23.218;2023-04-29T06:24:17;94507.91;;;10.37;65.68
43553;BME280;29153;42.696;23.218;2023-04-29T06:26:45;94515.91;;;10.25;63.98
43553;BME280;29153;42.696;23.218;2023-04-29T06:29:14;94501.30;;;10.37;65.09
43553;BME280;29153;42.696;23.218;2023-04-29T06:31:41;94503.11;;;10.47;64.68
43553;BME280;29153;42.696;23.218;2023-04-29T06:34:09;94505.53;;;10.38;62.51
43553;BME280;29153;42.696;23.218;2023-04-29T06:36:36;94495.30;;;10.17;68.11
43553;BME280;29153;42.696;23.218;2023-04-29T06:39:04;94505.18;;;10.55;62.61
43553;BME280;29153;42.696;23.218;2023-04-29T06:41:31;94500.59;;;10.66;64.07
43553;BME280;29153;42.696;23.218;2023-04-29T06:43:59;94505.92;;;10.63;62.68
43553;BME280;29153;42.696;23.218;2023-04-29T06:46:26;94502.06;;;10.43;62.50
43553;BME280;29153;42.696;23.218;2023-04-29T06:48:55;94498.59;;;10.45;63.30
43553;BME280;29153;42.696;23.218;2023-04-29T06:51:22;94486.73;;;10.37;66.44
43553;BME280;29153;42.696;23.218;2023-04-29T06:53:50;94506.77;;;10.56;62.28
43553;BME280;29153;42.696;23.218;2023-04-29T06:56:18;94509.12;;;10.58;62.08
43553;BME280;29153;42.696;23.218;2023-04-29T06:58:45;94505.18;;;10.96;62.81
43553;BME280;29153;42.696;23.218;2023-04-29T07:01:12;94498.85;;;11.29;63.25
43553;BME280;29153;42.696;23.218;2023-04-29T07:03:40;94507.61;;;11.58;60.21
43553;BME280;29153;42.696;23.218;2023-04-29T07:06:08;94502.70;;;11.73;60.11
43553;BME280;29153;42.696;23.218;2023-04-29T07:08:36;94507.84;;;11.91;59.93
43553;BME280;29153;42.696;23.218;2023-04-29T07:11:03;94494.03;;;11.94;61.17
43553;BME280;29153;42.696;23.218;2023-04-29T07:13:31;94489.34;;;12.30;61.82
43553;BME280;29153;42.696;23.218;2023-04-29T07:15:59;94495.45;;;12.28;59.05
43553;BME280;29153;42.696;23.218;2023-04-29T07:18:26;94490.49;;;12.64;59.32
43553;BME280;29153;42.696;23.218;2023-04-29T07:20:54;94487.70;;;12.74;59.47
43553;BME280;29153;42.696;23.218;2023-04-29T07:23:21;94482.43;;;12.51;60.32
43553;BME280;29153;42.696;23.218;2023-04-29T07:25:49;94483.37;;;12.97;60.51
43553;BME280;29153;42.696;23.218;2023-04-29T07:28:17;94487.49;;;13.57;57.91
43553;BME280;29153;42.696;23.218;2023-04-29T07:30:45;94484.75;;;13.92;54.11
43553;BME280;29153;42.696;23.218;2023-04-29T07:33:12;94486.77;;;14.41;52.88
43553;BME280;29153;42.696;23.218;2023-04-29T07:35:39;94485.91;;;14.68;51.05
43553;BME280;29153;42.696;23.218;2023-04-29T07:38:08;94483.14;;;14.73;48.67
43553;BME280;29153;42.696;23.218;2023-04-29T07:40:36;94475.36;;;14.87;52.47
43553;BME280;29153;42.696;23.218;2023-04-29T07:43:03;94474.98;;;15.27;51.09
43553;BME280;29153;42.696;23.218;2023-04-29T07:45:32;94479.80;;;15.03;46.80
43553;BME280;29153;42.696;23.218;2023-04-29T07:47:59;94478.00;;;15.34;45.70
43553;BME280;29153;42.696;23.218;2023-04-29T07:50:27;94472.71;;;15.32;47.17
43553;BME280;29153;42.696;23.218;2023-04-29T07:52:54;94472.73;;;15.54;46.33
43553;BME280;29153;42.696;23.218;2023-04-29T07:55:23;94465.65;;;15.91;48.42
43553;BME280;29153;42.696;23.218;2023-04-29T07:57:52;94480.30;;;15.72;44.54
43553;BME280;29153;42.696;23.218;2023-04-29T08:00:20;94458.77;;;15.68;49.19
43553;BME280;29153;42.696;23.218;2023-04-29T08:02:52;94454.97;;;15.27;46.80
43553;BME280;29153;42.696;23.218;2023-04-29T08:05:20;94458.53;;;15.34;44.55
43553;BME280;29153;42.696;23.218;2023-04-29T08:07:48;94458.36;;;15.30;46.82
43553;BME280;29153;42.696;23.218;2023-04-29T08:10:16;94458.47;;;15.25;46.37
43553;BME280;29153;42.696;23.218;2023-04-29T08:12:51;94460.52;;;15.62;45.00
43553;BME280;29153;42.696;23.218;2023-04-29T08:15:15;94458.31;;;15.75;43.91
43553;BME280;29153;42.696;23.218;2023-04-29T08:17:43;94455.42;;;15.74;45.59
43553;BME280;29153;42.696;23.218;2023-04-29T08:20:11;94452.34;;;15.69;45.76
43553;BME280;29153;42.696;23.218;2023-04-29T08:22:40;94446.12;;;15.82;47.22
43553;BME280;29153;42.696;23.218;2023-04-29T08:25:08;94444.28;;;15.91;50.68
43553;BME280;29153;42.696;23.218;2023-04-29T08:27:36;94445.79;;;15.84;42.36
43553;BME280;29153;42.696;23.218;2023-04-29T08:30:03;94440.95;;;15.75;47.70
43553;BME280;29153;42.696;23.218;2023-04-29T08:32:31;94440.49;;;16.12;46.83
43553;BME280;29153;42.696;23.218;2023-04-29T08:35:00;94442.75;;;16.36;44.34
43553;BME280;29153;42.696;23.218;2023-04-29T08:37:28;94435.77;;;16.37;45.81
43553;BME280;29153;42.696;23.218;2023-04-29T08:39:55;94438.13;;;16.67;45.78
43553;BME280;29153;42.696;23.218;2023-04-29T08:42:31;94441.50;;;16.33;43.33
43553;BME280;29153;42.696;23.218;2023-04-29T08:44:58;94446.66;;;16.02;42.83
43553;BME280;29153;42.696;23.218;2023-04-29T08:47:32;94444.26;;;16.11;43.61
43553;BME280;29153;42.696;23.218;2023-04-29T08:50:04;94438.15;;;16.19;43.61
43553;BME280;29153;42.696;23.218;2023-04-29T08:52:32;94426.26;;;16.14;45.11
43553;BME280;29153;42.696;23.218;2023-04-29T08:55:01;94429.56;;;16.11;43.92
43553;BME280;29153;42.696;23.218;2023-04-29T08:57:34;94430.98;;;16.17;43.83
43553;BME280;29153;42.696;23.218;2023-04-29T09:00:03;94430.73;;;16.45;46.75
43553;BME280;29153;42.696;23.218;2023-04-29T09:02:31;94431.59;;;16.71;43.13
43553;BME280;29153;42.696;23.218;2023-04-29T09:05:07;94434.65;;;17.36;44.93
43553;BME280;29153;42.696;23.218;2023-04-29T09:07:38;94431.11;;;17.78;39.72
43553;BME280;29153;42.696;23.218;2023-04-29T09:10:06;94419.06;;;17.93;46.09
43553;BME280;29153;42.696;23.218;2023-04-29T09:12:34;94417.47;;;18.15;44.78
43553;BME280;29153;42.696;23.218;2023-04-29T09:15:02;94435.34;;;18.02;37.99
43553;BME280;29153;42.696;23.218;2023-04-29T09:17:43;94426.44;;;17.81;41.04
43553;BME280;29153;42.696;23.218;2023-04-29T09:22:59;94421.89;;;17.41;41.98
43553;BME280;29153;42.696;23.218;2023-04-29T09:25:27;94415.95;;;17.59;41.60
43553;BME280;29153;42.696;23.218;2023-04-29T09:27:55;94417.06;;;17.49;39.86
43553;BME280;29153;42.696;23.218;2023-04-29T09:30:24;94414.94;;;17.49;41.39
43553;BME280;29153;42.696;23.218;2023-04-29T09:33:05;94401.73;;;17.76;46.71
43553;BME280;29153;42.696;23.218;2023-04-29T09:35:33;94405.31;;;17.88;41.03
43553;BME280;29153;42.696;23.218;2023-04-29T09:38:09;94402.49;;;17.99;40.96
43553;BME280;29153;42.696;23.218;2023-04-29T09:40:38;94397.64;;;18.07;41.74
43553;BME280;29153;42.696;23.218;2023-04-29T09:43:11;94390.80;;;18.48;42.82
43553;BME280;29153;42.696;23.218;2023-04-29T09:45:42;94360.06;;;18.31;39.02
43553;BME280;29153;42.696;23.218;2023-04-29T09:48:11;94397.19;;;18.64;39.39
43553;BME280;29153;42.696;23.218;2023-04-29T09:50:40;94382.25;;;18.75;40.56
43553;BME280;29153;42.696;23.218;2023-04-29T09:53:10;94384.32;;;18.63;38.18
43553;BME280;29153;42.696;23.218;2023-04-29T09:55:59;94377.48;;;18.60;40.52
43553;BME280;29153;42.696;23.218;2023-04-29T09:58:34;94376.58;;;18.27;38.78
43553;BME280;29153;42.696;23.218;2023-04-29T10:01:05;94369.48;;;18.37;37.40
43553;BME280;29153;42.696;23.218;2023-04-29T10:03:33;94365.95;;;18.45;37.18
43553;BME280;29153;42.696;23.218;2023-04-29T10:06:02;94359.45;;;18.54;39.74
43553;BME280;29153;42.696;23.218;2023-04-29T10:08:31;94358.52;;;18.65;37.56
43553;BME280;29153;42.696;23.218;2023-04-29T10:11:00;94360.23;;;18.55;38.94
43553;BME280;29153;42.696;23.218;2023-04-29T10:13:29;94356.80;;;18.46;37.53
43553;BME280;29153;42.696;23.218;2023-04-29T10:16:29;94352.44;;;18.27;36.13
43553;BME280;29153;42.696;23.218;2023-04-29T10:19:02;94347.08;;;18.27;39.27
43553;BME280;29153;42.696;23.218;2023-04-29T10:21:29;94347.77;;;18.30;40.55
43553;BME280;29153;42.696;23.218;2023-04-29T10:23:58;94345.31;;;18.31;39.66
43553;BME280;29153;42.696;23.218;2023-04-29T10:26:27;94346.25;;;18.41;39.67
43553;BME280;29153;42.696;23.218;2023-04-29T10:28:55;94344.30;;;18.50;40.00
43553;BME280;29153;42.696;23.218;2023-04-29T10:31:26;94336.58;;;18.63;38.05
43553;BME280;29153;42.696;23.218;2023-04-29T10:33:57;94342.04;;;18.46;35.42
43553;BME280;29153;42.696;23.218;2023-04-29T10:36:27;94344.19;;;18.61;34.13
43553;BME280;29153;42.696;23.218;2023-04-29T10:39:02;94341.08;;;18.65;35.25
43553;BME280;29153;42.696;23.218;2023-04-29T10:41:42;94338.81;;;18.46;39.16
43553;BME280;29153;42.696;23.218;2023-04-29T10:44:07;94341.14;;;18.56;35.39
43553;BME280;29153;42.696;23.218;2023-04-29T10:46:35;94333.02;;;18.65;36.18
43553;BME280;29153;42.696;23.218;2023-04-29T10:49:04;94333.80;;;18.92;35.67
43553;BME280;29153;42.696;23.218;2023-04-29T10:51:42;94325.95;;;18.46;34.23
43553;BME280;29153;42.696;23.218;2023-04-29T10:54:17;94328.42;;;18.92;35.55
43553;BME280;29153;42.696;23.218;2023-04-29T10:56:48;94320.42;;;19.43;33.14
43553;BME280;29153;42.696;23.218;2023-04-29T10:59:21;94324.45;;;19.43;31.31
43553;BME280;29153;42.696;23.218;2023-04-29T11:01:55;94319.67;;;19.55;29.92
43553;BME280;29153;42.696;23.218;2023-04-29T11:04:20;94327.25;;;19.47;29.75
43553;BME280;29153;42.696;23.218;2023-04-29T11:06:53;94321.95;;;18.93;29.71
43553;BME280;29153;42.696;23.218;2023-04-29T11:17:04;94316.85;;;18.17;34.34
43553;BME280;29153;42.696;23.218;2023-04-29T11:19:33;94318.64;;;18.19;29.68
43553;BME280;29153;42.696;23.218;2023-04-29T11:24:55;94313.67;;;17.95;33.63
43553;BME280;29153;42.696;23.218;2023-04-29T11:27:29;94309.83;;;17.52;34.92
43553;BME280;29153;42.696;23.218;2023-04-29T11:29:56;94311.27;;;17.58;34.83
43553;BME280;29153;42.696;23.218;2023-04-29T11:32:26;94313.67;;;17.34;31.02
43553;BME280;29153;42.696;23.218;2023-04-29T11:34:54;94311.02;;;17.25;31.66
43553;BME280;29153;42.696;23.218;2023-04-29T11:37:25;94311.00;;;17.34;31.85
43553;BME280;29153;42.696;23.218;2023-04-29T11:39:58;94309.04;;;17.37;32.21
43553;BME280;29153;42.696;23.218;2023-04-29T11:42:23;94310.05;;;17.15;32.34
43553;BME280;29153;42.696;23.218;2023-04-29T11:44:51;94305.76;;;16.91;31.93
43553;BME280;29153;42.696;23.218;2023-04-29T11:47:19;94310.89;;;16.90;33.71
43553;BME280;29153;42.696;23.218;2023-04-29T11:49:47;94314.20;;;16.78;34.81
43553;BME280;29153;42.696;23.218;2023-04-29T11:52:15;94308.91;;;16.93;33.86
43553;BME280;29153;42.696;23.218;2023-04-29T11:54:42;94308.29;;;16.87;35.43
43553;BME280;29153;42.696;23.218;2023-04-29T11:57:10;94297.66;;;16.93;37.60
43553;BME280;29153;42.696;23.218;2023-04-29T11:59:38;94303.26;;;16.94;33.81
43553;BME280;29153;42.696;23.218;2023-04-29T12:02:10;94299.98;;;17.03;32.59
43553;BME280;29153;42.696;23.218;2023-04-29T12:04:46;94298.15;;;17.18;32.60
43553;BME280;29153;42.696;23.218;2023-04-29T12:07:16;94300.52;;;17.20;31.25
43553;BME280;29153;42.696;23.218;2023-04-29T12:09:44;94293.65;;;17.16;33.01
43553;BME280;29153;42.696;23.218;2023-04-29T12:12:13;94294.03;;;17.21;32.38
43553;BME280;29153;42.696;23.218;2023-04-29T12:14:41;94293.89;;;17.17;31.57
43553;BME280;29153;42.696;23.218;2023-04-29T12:17:10;94291.36;;;17.44;31.76
43553;BME280;29153;42.696;23.218;2023-04-29T12:19:39;94284.19;;;17.42;33.62
43553;BME280;29153;42.696;23.218;2023-04-29T12:22:08;94289.75;;;17.52;31.70
43553;BME280;29153;42.696;23.218;2023-04-29T12:24:37;94284.33;;;17.46;33.00
43553;BME280;29153;42.696;23.218;2023-04-29T12:27:09;94285.18;;;17.52;34.55
43553;BME280;29153;42.696;23.218;2023-04-29T12:29:38;94274.16;;;17.54;32.49
43553;BME280;29153;42.696;23.218;2023-04-29T12:32:15;94278.48;;;17.52;32.57
43553;BME280;29153;42.696;23.218;2023-04-29T12:34:38;94275.33;;;17.50;32.49
43553;BME280;29153;42.696;23.218;2023-04-29T12:37:06;94278.23;;;17.60;32.33
43553;BME280;29153;42.696;23.218;2023-04-29T12:39:33;94279.33;;;17.59;32.94
43553;BME280;29153;42.696;23.218;2023-04-29T12:42:02;94270.31;;;17.49;36.89
43553;BME280;29153;42.696;23.218;2023-04-29T12:44:36;94272.72;;;17.18;34.18
43553;BME280;29153;42.696;23.218;2023-04-29T12:47:10;94272.41;;;17.20;35.26
43553;BME280;29153;42.696;23.218;2023-04-29T12:49:47;94272.34;;;17.28;34.42
43553;BME280;29153;42.696;23.218;2023-04-29T12:52:11;94273.52;;;17.34;32.39
43553;BME280;29153;42.696;23.218;2023-04-29T12:54:39;94270.59;;;17.41;31.82
43553;BME280;29153;42.696;23.218;2023-04-29T12:57:09;94267.12;;;17.55;32.59
43553;BME280;29153;42.696;23.218;2023-04-29T12:59:37;94262.72;;;17.74;33.38
43553;BME280;29153;42.696;23.218;2023-04-29T13:02:06;94263.33;;;17.80;31.45
43553;BME280;29153;42.696;23.218;2023-04-29T13:04:34;94261.63;;;17.75;34.46
43553;BME280;29153;42.696;23.218;2023-04-29T13:07:02;94263.98;;;17.53;34.46
43553;BME280;29153;42.696;23.218;2023-04-29T13:09:30;94258.52;;;17.64;33.15
43553;BME280;29153;42.696;23.218;2023-04-29T13:11:59;94255.84;;;17.64;33.10
43553;BME280;29153;42.696;23.218;2023-04-29T13:14:27;94249.24;;;17.62;33.69
43553;BME280;29153;42.696;23.218;2023-04-29T13:16:54;94227.29;;;17.68;33.38
43553;BME280;29153;42.696;23.218;2023-04-29T13:19:22;94250.16;;;18.01;36.44
43553;BME280;29153;42.696;23.218;2023-04-29T13:21:49;94245.55;;;17.75;35.43
43553;BME280;29153;42.696;23.218;2023-04-29T13:24:16;94239.47;;;17.57;35.84
43553;BME280;29153;42.696;23.218;2023-04-29T13:26:45;94243.12;;;17.82;36.27